sensor_id;sensor_type;location;lat;lon;timestamp;pressure;altitude;pressure_sealevel;temperature;humidity
49194;BME280;35029;50.804;12.866;2023-11-21T00:00:19;96994.38;;;7.46;100.00
49194;BME280;35029;50.804;12.866;2023-11-21T00:02:45;96994.56;;;7.44;100.00
49194;BME280;35029;50.804;12.866;2023-11-21T00:05:12;96998.81;;;7.45;100.00
49194;BME280;35029;50.804;12.866;2023-11-21T00:07:40;97004.06;;;7.45;100.00
49194;BME280;35029;50.804;12.866;2023-11-21T00:10:07;96999.84;;;7.44;100.00
49194;BME280;35029;50.804;12.866;2023-11-21T00:12:36;96996.38;;;7.44;100.00
49194;BME280;35029;50.804;12.866;2023-11-21T00:15:04;97001.63;;;7.44;100.00
49194;BME280;35029;50.804;12.866;2023-11-21T00:17:39;96993.69;;;7.37;100.00
49194;BME280;35029;50.804;12.866;2023-11-21T00:20:06;96996.72;;;7.34;100.00
49194;BME280;35029;50.804;12.866;2023-11-21T00:22:33;97001.78;;;7.36;100.00
49194;BME280;35029;50.804;12.866;2023-11-21T00:24:59;97001.75;;;7.29;100.00
49194;BME280;35029;50.804;12.866;2023-11-21T00:27:24;97005.63;;;7.33;100.00
49194;BME280;35029;50.804;12.866;2023-11-21T00:29:50;97001.00;;;7.35;100.00
49194;BME280;35029;50.804;12.866;2023-11-21T00:32:15;97008.47;;;7.32;100.00
49194;BME280;35029;50.804;12.866;2023-11-21T00:34:41;97003.81;;;7.34;100.00
49194;BME280;35029;50.804;12.866;2023-11-21T00:37:07;97011.72;;;7.34;100.00
49194;BME280;35029;50.804;12.866;2023-11-21T00:39:33;97014.38;;;7.34;100.00
49194;BME280;35029;50.804;12.866;2023-11-21T00:42:00;97015.38;;;7.33;100.00
49194;BME280;35029;50.804;12.866;2023-11-21T00:44:26;97014.72;;;7.31;100.00
49194;BME280;35029;50.804;12.866;2023-11-21T00:46:52;97014.56;;;7.32;100.00
49194;BME280;35029;50.804;12.866;2023-11-21T00:49:17;97019.00;;;7.32;100.00
49194;BME280;35029;50.804;12.866;2023-11-21T00:51:43;97015.56;;;7.31;100.00
49194;BME280;35029;50.804;12.866;2023-11-21T00:54:08;97025.09;;;7.32;100.00
49194;BME280;35029;50.804;12.866;2023-11-21T00:56:34;97022.28;;;7.34;100.00
49194;BME280;35029;50.804;12.866;2023-11-21T00:58:59;97025.53;;;7.36;100.00
49194;BME280;35029;50.804;12.866;2023-11-21T01:01:25;97026.34;;;7.36;100.00
49194;BME280;35029;50.804;12.866;2023-11-21T01:03:50;97028.16;;;7.36;100.00
49194;BME280;35029;50.804;12.866;2023-11-21T01:06:16;97031.19;;;7.33;100.00
49194;BME280;35029;50.804;12.866;2023-11-21T01:08:44;97020.00;;;7.31;100.00
49194;BME280;35029;50.804;12.866;2023-11-21T01:11:10;97031.00;;;7.34;100.00
49194;BME280;35029;50.804;12.866;2023-11-21T01:13:38;97021.84;;;7.30;100.00
49194;BME280;35029;50.804;12.866;2023-11-21T01:16:05;97018.16;;;7.24;100.00
49194;BME280;35029;50.804;12.866;2023-11-21T01:18:32;97034.88;;;7.38;100.00
49194;BME280;35029;50.804;12.866;2023-11-21T01:20:57;97037.06;;;7.35;100.00
49194;BME280;35029;50.804;12.866;2023-11-21T01:23:23;97035.66;;;7.32;100.00
49194;BME280;35029;50.804;12.866;2023-11-21T01:25:49;97034.41;;;7.28;100.00
49194;BME280;35029;50.804;12.866;2023-11-21T01:28:14;97026.50;;;7.28;100.00
49194;BME280;35029;50.804;12.866;2023-11-21T01:30:40;97027.50;;;7.27;100.00
49194;BME280;35029;50.804;12.866;2023-11-21T01:33:05;97032.38;;;7.30;100.00
49194;BME280;35029;50.804;12.866;2023-11-21T01:35:31;97034.22;;;7.30;100.00
49194;BME280;35029;50.804;12.866;2023-11-21T01:37:56;97023.88;;;7.28;100.00
49194;BME280;35029;50.804;12.866;2023-11-21T01:40:22;97024.22;;;7.25;100.00
49194;BME280;35029;50.804;12.866;2023-11-21T01:42:47;97030.50;;;7.24;100.00
49194;BME280;35029;50.804;12.866;2023-11-21T01:45:14;97026.81;;;7.18;100.00
49194;BME280;35029;50.804;12.866;2023-11-21T01:47:41;97026.63;;;7.20;100.00
49194;BME280;35029;50.804;12.866;2023-11-21T01:50:13;97014.81;;;7.16;100.00
49194;BME280;35029;50.804;12.866;2023-11-21T01:52:39;97021.31;;;7.13;100.00
49194;BME280;35029;50.804;12.866;2023-11-21T01:55:07;97006.91;;;7.09;100.00
49194;BME280;35029;50.804;12.866;2023-11-21T01:57:34;97011.47;;;7.00;100.00
49194;BME280;35029;50.804;12.866;2023-11-21T02:00:02;97025.91;;;7.04;100.00
49194;BME280;35029;50.804;12.866;2023-11-21T02:02:45;97020.75;;;6.96;100.00
49194;BME280;35029;50.804;12.866;2023-11-21T02:05:12;97027.47;;;6.99;100.00
49194;BME280;35029;50.804;12.866;2023-11-21T02:07:39;97026.84;;;6.97;100.00
49194;BME280;35029;50.804;12.866;2023-11-21T02:10:08;97027.22;;;6.93;100.00
49194;BME280;35029;50.804;12.866;2023-11-21T02:12:35;97034.94;;;6.95;100.00
49194;BME280;35029;50.804;12.866;2023-11-21T02:15:05;97034.13;;;6.94;100.00
49194;BME280;35029;50.804;12.866;2023-11-21T02:17:37;97020.28;;;6.86;100.00
49194;BME280;35029;50.804;12.866;2023-11-21T02:20:03;97041.03;;;6.96;100.00
49194;BME280;35029;50.804;12.866;2023-11-21T02:22:36;97035.78;;;6.96;100.00
49194;BME280;35029;50.804;12.866;2023-11-21T02:25:04;97037.56;;;6.95;100.00
49194;BME280;35029;50.804;12.866;2023-11-21T02:27:30;97034.94;;;6.95;100.00
49194;BME280;35029;50.804;12.866;2023-11-21T02:29:56;97034.13;;;6.94;100.00
49194;BME280;35029;50.804;12.866;2023-11-21T02:32:22;97031.88;;;6.91;100.00
49194;BME280;35029;50.804;12.866;2023-11-21T02:34:48;97026.22;;;6.73;100.00
49194;BME280;35029;50.804;12.866;2023-11-21T02:37:15;97037.81;;;6.79;100.00
49194;BME280;35029;50.804;12.866;2023-11-21T02:39:41;97038.03;;;6.77;100.00
49194;BME280;35029;50.804;12.866;2023-11-21T02:42:06;97048.75;;;6.75;100.00
49194;BME280;35029;50.804;12.866;2023-11-21T02:44:32;97044.84;;;6.71;100.00
49194;BME280;35029;50.804;12.866;2023-11-21T02:46:57;97047.22;;;6.66;100.00
49194;BME280;35029;50.804;12.866;2023-11-21T02:49:23;97051.13;;;6.70;100.00
49194;BME280;35029;50.804;12.866;2023-11-21T02:51:49;97019.38;;;6.57;100.00
49194;BME280;35029;50.804;12.866;2023-11-21T02:54:14;97053.03;;;6.76;100.00
49194;BME280;35029;50.804;12.866;2023-11-21T02:56:40;97014.31;;;6.55;100.00
49194;BME280;35029;50.804;12.866;2023-11-21T02:59:06;97052.63;;;6.80;100.00
49194;BME280;35029;50.804;12.866;2023-11-21T03:01:31;97053.63;;;6.79;100.00
49194;BME280;35029;50.804;12.866;2023-11-21T03:03:57;97053.09;;;6.83;100.00
49194;BME280;35029;50.804;12.866;2023-11-21T03:06:22;97046.97;;;6.83;100.00
49194;BME280;35029;50.804;12.866;2023-11-21T03:08:49;97036.19;;;6.77;100.00
49194;BME280;35029;50.804;12.866;2023-11-21T03:11:14;97041.53;;;6.84;100.00
49194;BME280;35029;50.804;12.866;2023-11-21T03:13:41;97051.72;;;6.87;100.00
49194;BME280;35029;50.804;12.866;2023-11-21T03:16:09;97055.94;;;6.88;100.00
49194;BME280;35029;50.804;12.866;2023-11-21T03:18:39;97056.34;;;6.85;100.00
49194;BME280;35029;50.804;12.866;2023-11-21T03:21:05;97057.78;;;6.88;100.00
49194;BME280;35029;50.804;12.866;2023-11-21T03:23:32;97054.34;;;6.87;100.00
49194;BME280;35029;50.804;12.866;2023-11-21T03:25:58;97053.31;;;6.88;100.00
49194;BME280;35029;50.804;12.866;2023-11-21T03:28:25;97051.25;;;6.84;100.00
49194;BME280;35029;50.804;12.866;2023-11-21T03:30:52;97057.97;;;6.86;100.00
49194;BME280;35029;50.804;12.866;2023-11-21T03:33:17;97051.06;;;6.85;100.00
49194;BME280;35029;50.804;12.866;2023-11-21T03:35:43;97053.44;;;6.80;100.00
49194;BME280;35029;50.804;12.866;2023-11-21T03:38:10;97051.19;;;6.77;100.00
49194;BME280;35029;50.804;12.866;2023-11-21T03:40:35;97052.84;;;6.78;100.00
49194;BME280;35029;50.804;12.866;2023-11-21T03:43:01;97052.84;;;6.78;100.00
49194;BME280;35029;50.804;12.866;2023-11-21T03:45:27;97061.53;;;6.79;100.00
49194;BME280;35029;50.804;12.866;2023-11-21T03:47:52;97062.72;;;6.76;100.00
49194;BME280;35029;50.804;12.866;2023-11-21T03:50:18;97064.16;;;6.79;100.00
49194;BME280;35029;50.804;12.866;2023-11-21T03:52:43;97065.16;;;6.77;100.00
49194;BME280;35029;50.804;12.866;2023-11-21T03:55:09;97065.00;;;6.79;100.00
49194;BME280;35029;50.804;12.866;2023-11-21T03:57:36;97065.63;;;6.81;100.00
49194;BME280;35029;50.804;12.866;2023-11-21T04:00:03;97067.44;;;6.81;100.00
49194;BME280;35029;50.804;12.866;2023-11-21T04:02:37;97065.16;;;6.77;100.00
49194;BME280;35029;50.804;12.866;2023-11-21T04:05:03;97045.47;;;6.73;100.00
49194;BME280;35029;50.804;12.866;2023-11-21T04:07:30;97063.81;;;6.82;100.00
49194;BME280;35029;50.804;12.866;2023-11-21T04:09:55;97067.44;;;6.81;100.00
49194;BME280;35029;50.804;12.866;2023-11-21T04:12:21;97065.00;;;6.79;100.00
49194;BME280;35029;50.804;12.866;2023-11-21T04:14:46;97062.13;;;6.74;100.00
49194;BME280;35029;50.804;12.866;2023-11-21T04:17:12;97070.56;;;6.69;100.00
49194;BME280;35029;50.804;12.866;2023-11-21T04:19:37;97059.06;;;6.55;100.00
49194;BME280;35029;50.804;12.866;2023-11-21T04:22:03;97072.97;;;6.64;100.00
49194;BME280;35029;50.804;12.866;2023-11-21T04:24:29;97076.97;;;6.60;100.00
49194;BME280;35029;50.804;12.866;2023-11-21T04:26:54;97068.63;;;6.56;100.00
49194;BME280;35029;50.804;12.866;2023-11-21T04:29:20;97080.13;;;6.55;100.00
49194;BME280;35029;50.804;12.866;2023-11-21T04:31:46;97077.69;;;6.54;100.00
49194;BME280;35029;50.804;12.866;2023-11-21T04:34:15;97081.50;;;6.51;100.00
49194;BME280;35029;50.804;12.866;2023-11-21T04:36:40;97082.50;;;6.50;100.00
49194;BME280;35029;50.804;12.866;2023-11-21T04:39:06;97088.34;;;6.46;100.00
49194;BME280;35029;50.804;12.866;2023-11-21T04:41:32;97090.88;;;6.54;100.00
49194;BME280;35029;50.804;12.866;2023-11-21T04:43:58;97088.03;;;6.55;100.00
49194;BME280;35029;50.804;12.866;2023-11-21T04:46:26;97100.41;;;6.55;100.00
49194;BME280;35029;50.804;12.866;2023-11-21T04:48:51;97090.88;;;6.54;100.00
49194;BME280;35029;50.804;12.866;2023-11-21T04:51:17;97081.50;;;6.51;100.00
49194;BME280;35029;50.804;12.866;2023-11-21T04:53:42;97097.78;;;6.55;100.00
49194;BME280;35029;50.804;12.866;2023-11-21T04:56:08;97099.16;;;6.51;100.00
49194;BME280;35029;50.804;12.866;2023-11-21T04:58:35;97089.59;;;6.50;100.00
49194;BME280;35029;50.804;12.866;2023-11-21T05:01:01;97100.13;;;6.50;100.00
49194;BME280;35029;50.804;12.866;2023-11-21T05:03:26;97100.31;;;6.48;100.00
49194;BME280;35029;50.804;12.866;2023-11-21T05:05:52;97086.47;;;6.39;100.00
49194;BME280;35029;50.804;12.866;2023-11-21T05:08:17;97101.81;;;6.36;100.00
49194;BME280;35029;50.804;12.866;2023-11-21T05:10:45;97107.16;;;6.28;100.00
49194;BME280;35029;50.804;12.866;2023-11-21T05:13:11;97091.59;;;6.11;100.00
49194;BME280;35029;50.804;12.866;2023-11-21T05:15:36;97089.38;;;6.00;100.00
49194;BME280;35029;50.804;12.866;2023-11-21T05:18:03;97091.94;;;6.08;100.00
49194;BME280;35029;50.804;12.866;2023-11-21T05:20:28;97108.63;;;6.15;100.00
49194;BME280;35029;50.804;12.866;2023-11-21T05:22:54;97111.09;;;6.17;100.00
49194;BME280;35029;50.804;12.866;2023-11-21T05:25:21;97109.81;;;6.13;100.00
49194;BME280;35029;50.804;12.866;2023-11-21T05:27:47;97108.00;;;6.13;100.00
49194;BME280;35029;50.804;12.866;2023-11-21T05:30:13;97112.72;;;6.03;100.00
49194;BME280;35029;50.804;12.866;2023-11-21T05:32:40;97126.50;;;6.05;100.00
49194;BME280;35029;50.804;12.866;2023-11-21T05:35:08;97124.72;;;6.05;100.00
49194;BME280;35029;50.804;12.866;2023-11-21T05:37:37;97106.25;;;5.90;100.00
49194;BME280;35029;50.804;12.866;2023-11-21T05:40:06;97118.19;;;5.93;100.00
49194;BME280;35029;50.804;12.866;2023-11-21T05:42:35;97128.28;;;5.89;100.00
49194;BME280;35029;50.804;12.866;2023-11-21T05:45:02;97132.00;;;5.80;100.00
49194;BME280;35029;50.804;12.866;2023-11-21T05:47:41;97123.81;;;5.75;100.00
49194;BME280;35029;50.804;12.866;2023-11-21T05:50:08;97137.06;;;5.67;100.00
49194;BME280;35029;50.804;12.866;2023-11-21T05:52:41;97112.91;;;5.48;100.00
49194;BME280;35029;50.804;12.866;2023-11-21T05:55:08;97135.13;;;5.46;100.00
49194;BME280;35029;50.804;12.866;2023-11-21T05:57:34;97124.13;;;5.42;100.00
49194;BME280;35029;50.804;12.866;2023-11-21T06:00:07;97132.56;;;5.37;100.00
49194;BME280;35029;50.804;12.866;2023-11-21T06:02:38;97134.09;;;5.32;100.00
49194;BME280;35029;50.804;12.866;2023-11-21T06:05:04;97134.13;;;5.23;100.00
49194;BME280;35029;50.804;12.866;2023-11-21T06:07:29;97139.13;;;5.18;100.00
49194;BME280;35029;50.804;12.866;2023-11-21T06:09:55;97138.63;;;5.15;100.00
49194;BME280;35029;50.804;12.866;2023-11-21T06:12:21;97137.84;;;5.14;100.00
49194;BME280;35029;50.804;12.866;2023-11-21T06:14:46;97131.97;;;5.04;100.00
49194;BME280;35029;50.804;12.866;2023-11-21T06:17:13;97139.69;;;5.05;100.00
49194;BME280;35029;50.804;12.866;2023-11-21T06:19:39;97144.00;;;4.98;100.00
49194;BME280;35029;50.804;12.866;2023-11-21T06:22:05;97132.63;;;4.83;100.00
49194;BME280;35029;50.804;12.866;2023-11-21T06:24:31;97135.41;;;4.81;100.00
49194;BME280;35029;50.804;12.866;2023-11-21T06:26:57;97172.81;;;4.83;100.00
49194;BME280;35029;50.804;12.866;2023-11-21T06:29:23;97154.84;;;4.72;100.00
49194;BME280;35029;50.804;12.866;2023-11-21T06:31:49;97165.75;;;4.84;100.00
49194;BME280;35029;50.804;12.866;2023-11-21T06:34:14;97165.88;;;4.90;100.00
49194;BME280;35029;50.804;12.866;2023-11-21T06:36:40;97166.91;;;4.89;100.00
49194;BME280;35029;50.804;12.866;2023-11-21T06:39:05;97175.06;;;4.95;100.00
49194;BME280;35029;50.804;12.866;2023-11-21T06:41:33;97180.06;;;5.04;100.00
49194;BME280;35029;50.804;12.866;2023-11-21T06:43:59;97184.28;;;5.14;100.00
49194;BME280;35029;50.804;12.866;2023-11-21T06:46:24;97173.72;;;5.22;100.00
49194;BME280;35029;50.804;12.866;2023-11-21T06:48:50;97181.72;;;5.29;100.00
49194;BME280;35029;50.804;12.866;2023-11-21T06:51:15;97185.94;;;5.38;100.00
49194;BME280;35029;50.804;12.866;2023-11-21T06:53:41;97186.06;;;5.45;100.00
49194;BME280;35029;50.804;12.866;2023-11-21T06:56:17;97172.72;;;5.46;100.00
49194;BME280;35029;50.804;12.866;2023-11-21T06:58:46;97182.00;;;5.57;100.00
49194;BME280;35029;50.804;12.866;2023-11-21T07:01:13;97167.59;;;5.53;100.00
49194;BME280;35029;50.804;12.866;2023-11-21T07:03:39;97185.66;;;5.71;100.00
49194;BME280;35029;50.804;12.866;2023-11-21T07:06:05;97175.16;;;5.71;100.00
49194;BME280;35029;50.804;12.866;2023-11-21T07:08:32;97187.97;;;5.89;100.00
49194;BME280;35029;50.804;12.866;2023-11-21T07:10:57;97190.69;;;5.96;100.00
49194;BME280;35029;50.804;12.866;2023-11-21T07:13:23;97196.44;;;5.99;100.00
49194;BME280;35029;50.804;12.866;2023-11-21T07:15:49;97169.72;;;5.87;100.00
49194;BME280;35029;50.804;12.866;2023-11-21T07:18:14;97198.38;;;6.05;100.00
49194;BME280;35029;50.804;12.866;2023-11-21T07:20:40;97193.19;;;6.12;100.00
49194;BME280;35029;50.804;12.866;2023-11-21T07:23:05;97198.41;;;6.20;100.00
49194;BME280;35029;50.804;12.866;2023-11-21T07:25:31;97193.28;;;6.19;100.00
49194;BME280;35029;50.804;12.866;2023-11-21T07:27:59;97200.09;;;6.28;100.00
49194;BME280;35029;50.804;12.866;2023-11-21T07:30:26;97210.09;;;6.33;100.00
49194;BME280;35029;50.804;12.866;2023-11-21T07:32:53;97207.91;;;6.36;100.00
49194;BME280;35029;50.804;12.866;2023-11-21T07:35:18;97211.19;;;6.38;100.00
49194;BME280;35029;50.804;12.866;2023-11-21T07:37:44;97199.81;;;6.38;100.00
49194;BME280;35029;50.804;12.866;2023-11-21T07:40:10;97222.44;;;6.47;100.00
49194;BME280;35029;50.804;12.866;2023-11-21T07:42:37;97220.34;;;6.42;100.00
49194;BME280;35029;50.804;12.866;2023-11-21T07:45:05;97212.19;;;6.37;100.00
49194;BME280;35029;50.804;12.866;2023-11-21T07:47:30;97223.78;;;6.43;100.00
49194;BME280;35029;50.804;12.866;2023-11-21T07:50:00;97229.25;;;6.41;100.00
49194;BME280;35029;50.804;12.866;2023-11-21T07:52:28;97232.06;;;6.40;100.00
49194;BME280;35029;50.804;12.866;2023-11-21T07:54:53;97228.78;;;6.38;100.00
49194;BME280;35029;50.804;12.866;2023-11-21T07:57:19;97222.06;;;6.35;100.00
49194;BME280;35029;50.804;12.866;2023-11-21T07:59:44;97236.16;;;6.42;100.00
49194;BME280;35029;50.804;12.866;2023-11-21T08:02:10;97227.69;;;6.32;100.00
49194;BME280;35029;50.804;12.866;2023-11-21T08:04:35;97243.06;;;6.43;100.00
49194;BME280;35029;50.804;12.866;2023-11-21T08:07:01;97244.25;;;6.41;100.00
49194;BME280;35029;50.804;12.866;2023-11-21T08:09:27;97239.69;;;6.50;100.00
49194;BME280;35029;50.804;12.866;2023-11-21T08:11:53;97251.88;;;6.51;100.00
49194;BME280;35029;50.804;12.866;2023-11-21T08:14:18;97248.41;;;6.50;100.00
49194;BME280;35029;50.804;12.866;2023-11-21T08:16:45;97222.00;;;6.29;100.00
49194;BME280;35029;50.804;12.866;2023-11-21T08:19:11;97255.69;;;6.48;100.00
49194;BME280;35029;50.804;12.866;2023-11-21T08:21:36;97253.03;;;6.48;100.00
49194;BME280;35029;50.804;12.866;2023-11-21T08:24:05;97258.94;;;6.50;100.00
49194;BME280;35029;50.804;12.866;2023-11-21T08:26:31;97237.88;;;6.50;100.00
49194;BME280;35029;50.804;12.866;2023-11-21T08:28:57;97234.69;;;6.40;100.00
49194;BME280;35029;50.804;12.866;2023-11-21T08:31:26;97252.06;;;6.49;100.00
49194;BME280;35029;50.804;12.866;2023-11-21T08:33:52;97242.88;;;6.45;100.00
49194;BME280;35029;50.804;12.866;2023-11-21T08:36:21;97250.03;;;6.51;100.00
49194;BME280;35029;50.804;12.866;2023-11-21T08:38:48;97248.94;;;6.46;100.00
49194;BME280;35029;50.804;12.866;2023-11-21T08:41:14;97263.00;;;6.53;100.00
49194;BME280;35029;50.804;12.866;2023-11-21T08:43:40;97245.69;;;6.43;100.00
49194;BME280;35029;50.804;12.866;2023-11-21T08:46:06;97259.22;;;6.55;100.00
49194;BME280;35029;50.804;12.866;2023-11-21T08:48:32;97260.47;;;6.59;100.00
49194;BME280;35029;50.804;12.866;2023-11-21T08:50:57;97252.56;;;6.59;100.00
49194;BME280;35029;50.804;12.866;2023-11-21T08:53:23;97250.03;;;6.51;100.00
49194;BME280;35029;50.804;12.866;2023-11-21T08:55:48;97261.03;;;6.55;100.00
49194;BME280;35029;50.804;12.866;2023-11-21T08:58:15;97262.69;;;6.56;100.00
49194;BME280;35029;50.804;12.866;2023-11-21T09:00:41;97267.47;;;6.52;100.00
49194;BME280;35029;50.804;12.866;2023-11-21T09:03:06;97269.22;;;6.60;100.00
49194;BME280;35029;50.804;12.866;2023-11-21T09:05:37;97263.38;;;6.65;100.00
49194;BME280;35029;50.804;12.866;2023-11-21T09:08:04;97273.22;;;6.71;100.00
49194;BME280;35029;50.804;12.866;2023-11-21T09:10:29;97276.47;;;6.73;100.00
49194;BME280;35029;50.804;12.866;2023-11-21T09:12:55;97273.22;;;6.71;100.00
49194;BME280;35029;50.804;12.866;2023-11-21T09:15:20;97280.56;;;6.75;100.00
49194;BME280;35029;50.804;12.866;2023-11-21T09:17:46;97277.75;;;6.77;100.00
49194;BME280;35029;50.804;12.866;2023-11-21T09:20:12;97281.63;;;6.81;100.00
49194;BME280;35029;50.804;12.866;2023-11-21T09:22:37;97269.94;;;6.69;100.00
49194;BME280;35029;50.804;12.866;2023-11-21T09:25:03;97289.53;;;6.81;100.00
49194;BME280;35029;50.804;12.866;2023-11-21T09:27:31;97295.19;;;6.78;100.00
49194;BME280;35029;50.804;12.866;2023-11-21T09:29:57;97290.53;;;6.80;100.00
49194;BME280;35029;50.804;12.866;2023-11-21T09:32:23;97292.19;;;6.81;100.00
49194;BME280;35029;50.804;12.866;2023-11-21T09:34:49;97296.81;;;6.79;100.00
49194;BME280;35029;50.804;12.866;2023-11-21T09:37:15;97291.91;;;6.76;100.00
49194;BME280;35029;50.804;12.866;2023-11-21T09:39:41;97295.19;;;6.78;100.00
49194;BME280;35029;50.804;12.866;2023-11-21T09:42:12;97298.81;;;6.77;100.00
49194;BME280;35029;50.804;12.866;2023-11-21T09:44:56;97297.25;;;6.83;100.00
49194;BME280;35029;50.804;12.866;2023-11-21T09:47:24;97303.91;;;6.79;100.00
49194;BME280;35029;50.804;12.866;2023-11-21T09:49:52;97304.88;;;6.77;100.00
49194;BME280;35029;50.804;12.866;2023-11-21T09:52:26;97305.06;;;6.76;100.00
49194;BME280;35029;50.804;12.866;2023-11-21T09:54:52;97305.06;;;6.76;100.00
49194;BME280;35029;50.804;12.866;2023-11-21T09:57:25;97304.88;;;6.77;100.00
49194;BME280;35029;50.804;12.866;2023-11-21T09:59:51;97313.44;;;6.80;100.00
49194;BME280;35029;50.804;12.866;2023-11-21T10:02:25;97310.16;;;6.92;100.00
49194;BME280;35029;50.804;12.866;2023-11-21T10:04:52;97320.16;;;6.82;100.00
49194;BME280;35029;50.804;12.866;2023-11-21T10:07:19;97310.00;;;6.79;100.00
49194;BME280;35029;50.804;12.866;2023-11-21T10:09:46;97322.25;;;6.87;100.00
49194;BME280;35029;50.804;12.866;2023-11-21T10:12:17;97319.00;;;6.85;100.00
49194;BME280;35029;50.804;12.866;2023-11-21T10:14:43;97319.78;;;6.85;100.00
49194;BME280;35029;50.804;12.866;2023-11-21T10:17:12;97326.06;;;6.84;100.00
49194;BME280;35029;50.804;12.866;2023-11-21T10:19:42;97316.16;;;6.86;100.00
49194;BME280;35029;50.804;12.866;2023-11-21T10:22:08;97311.19;;;6.76;100.00
49194;BME280;35029;50.804;12.866;2023-11-21T10:24:35;97317.25;;;6.77;100.00
49194;BME280;35029;50.804;12.866;2023-11-21T10:27:00;97301.91;;;6.66;100.00
49194;BME280;35029;50.804;12.866;2023-11-21T10:29:29;97312.72;;;6.71;100.00
49194;BME280;35029;50.804;12.866;2023-11-21T10:31:55;97314.78;;;6.60;100.00
49194;BME280;35029;50.804;12.866;2023-11-21T10:34:24;97320.78;;;6.69;100.00
49194;BME280;35029;50.804;12.866;2023-11-21T10:36:49;97325.06;;;6.70;100.00
49194;BME280;35029;50.804;12.866;2023-11-21T10:39:19;97324.63;;;6.82;100.00
49194;BME280;35029;50.804;12.866;2023-11-21T10:41:49;97319.34;;;6.82;100.00
49194;BME280;35029;50.804;12.866;2023-11-21T10:44:18;97325.72;;;6.87;100.00
49194;BME280;35029;50.804;12.866;2023-11-21T10:46:52;97329.97;;;6.88;100.00
49194;BME280;35029;50.804;12.866;2023-11-21T10:49:21;97329.91;;;6.82;100.00
49194;BME280;35029;50.804;12.866;2023-11-21T10:51:47;97320.16;;;6.82;100.00
49194;BME280;35029;50.804;12.866;2023-11-21T10:54:20;97335.97;;;6.82;100.00
49194;BME280;35029;50.804;12.866;2023-11-21T10:57:00;97318.00;;;6.71;100.00
49194;BME280;35029;50.804;12.866;2023-11-21T10:59:30;97335.88;;;6.75;100.00
49194;BME280;35029;50.804;12.866;2023-11-21T11:01:57;97326.03;;;6.69;100.00
49194;BME280;35029;50.804;12.866;2023-11-21T11:04:25;97330.13;;;6.72;100.00
49194;BME280;35029;50.804;12.866;2023-11-21T11:06:57;97329.16;;;6.73;100.00
49194;BME280;35029;50.804;12.866;2023-11-21T11:09:26;97353.59;;;6.67;100.00
49194;BME280;35029;50.804;12.866;2023-11-21T11:11:52;97338.50;;;6.60;100.00
49194;BME280;35029;50.804;12.866;2023-11-21T11:14:18;97344.53;;;6.46;100.00
49194;BME280;35029;50.804;12.866;2023-11-21T11:16:45;97361.00;;;6.48;100.00
49194;BME280;35029;50.804;12.866;2023-11-21T11:19:11;97341.72;;;6.33;100.00
49194;BME280;35029;50.804;12.866;2023-11-21T11:27:20;97364.06;;;6.37;100.00
49194;BME280;35029;50.804;12.866;2023-11-21T11:33:00;97368.69;;;6.35;100.00
49194;BME280;35029;50.804;12.866;2023-11-21T11:38:21;97363.13;;;6.30;100.00
49194;BME280;35029;50.804;12.866;2023-11-21T11:40:48;97358.69;;;6.30;100.00
49194;BME280;35029;50.804;12.866;2023-11-21T11:43:27;97366.69;;;6.37;100.00
49194;BME280;35029;50.804;12.866;2023-11-21T11:45:57;97371.31;;;6.35;100.00
49194;BME280;35029;50.804;12.866;2023-11-21T11:48:24;97377.59;;;6.49;100.00
49194;BME280;35029;50.804;12.866;2023-11-21T11:51:06;97372.06;;;6.58;100.00
49194;BME280;35029;50.804;12.866;2023-11-21T11:53:41;97383.75;;;6.64;100.00
49194;BME280;35029;50.804;12.866;2023-11-21T11:56:24;97383.44;;;6.59;100.00
49194;BME280;35029;50.804;12.866;2023-11-21T11:58:54;97382.63;;;6.58;100.00
49194;BME280;35029;50.804;12.866;2023-11-21T12:01:22;97387.38;;;6.63;100.00
49194;BME280;35029;50.804;12.866;2023-11-21T12:07:02;97388.53;;;6.60;100.00
49194;BME280;35029;50.804;12.866;2023-11-21T12:09:30;97394.94;;;6.43;100.00
49194;BME280;35029;50.804;12.866;2023-11-21T12:11:57;97393.34;;;6.34;100.00
49194;BME280;35029;50.804;12.866;2023-11-21T12:14:22;97400.47;;;6.10;100.00
49194;BME280;35029;50.804;12.866;2023-11-21T12:16:48;97402.59;;;6.06;100.00
49194;BME280;35029;50.804;12.866;2023-11-21T12:19:14;97403.72;;;6.12;100.00
49194;BME280;35029;50.804;12.866;2023-11-21T12:21:40;97409.63;;;6.14;100.00
49194;BME280;35029;50.804;12.866;2023-11-21T12:24:14;97406.69;;;6.09;100.00
49194;BME280;35029;50.804;12.866;2023-11-21T12:26:42;97423.84;;;6.05;100.00
49194;BME280;35029;50.804;12.866;2023-11-21T12:29:08;97420.03;;;6.07;100.00
49194;BME280;35029;50.804;12.866;2023-11-21T12:31:34;97425.66;;;6.04;100.00
49194;BME280;35029;50.804;12.866;2023-11-21T12:34:02;97418.22;;;6.08;100.00
49194;BME280;35029;50.804;12.866;2023-11-21T12:36:29;97435.03;;;6.07;100.00
49194;BME280;35029;50.804;12.866;2023-11-21T12:38:56;97438.28;;;6.09;100.00
49194;BME280;35029;50.804;12.866;2023-11-21T12:41:22;97437.00;;;6.05;100.00
49194;BME280;35029;50.804;12.866;2023-11-21T12:43:47;97435.34;;;6.04;100.00
49194;BME280;35029;50.804;12.866;2023-11-21T12:46:15;97442.59;;;6.02;100.00
49194;BME280;35029;50.804;12.866;2023-11-21T12:48:41;97430.16;;;5.87;100.00
49194;BME280;35029;50.804;12.866;2023-11-21T12:51:08;97450.53;;;5.93;100.00
49194;BME280;35029;50.804;12.866;2023-11-21T12:53:35;97440.63;;;5.96;100.00
49194;BME280;35029;50.804;12.866;2023-11-21T12:56:12;97438.34;;;6.01;100.00
49194;BME280;35029;50.804;12.866;2023-11-21T12:58:39;97443.13;;;5.97;100.00
49194;BME280;35029;50.804;12.866;2023-11-21T13:01:06;97441.47;;;5.96;100.00
49194;BME280;35029;50.804;12.866;2023-11-21T13:03:38;97447.53;;;5.97;100.00